createdAt,value
2018-05-15T00:00:26.136Z,97481.52
2018-05-15T00:02:53.616Z,97481.38
2018-05-15T00:05:21.071Z,97482.30
2018-05-15T00:07:48.535Z,97480.38
2018-05-15T00:10:16.010Z,97482.80
2018-05-15T00:12:43.472Z,97480.66
2018-05-15T00:15:10.968Z,97479.20
2018-05-15T00:17:38.428Z,97473.90
2018-05-15T00:20:05.915Z,97467.98
2018-05-15T00:22:33.368Z,97471.05
2018-05-15T00:25:00.823Z,97469.68
2018-05-15T00:27:28.299Z,97466.68
2018-05-15T00:29:55.767Z,97468.95
2018-05-15T00:32:23.248Z,97469.95
2018-05-15T00:34:50.709Z,97472.63
2018-05-15T00:37:18.169Z,97472.46
2018-05-15T00:39:45.832Z,97467.91
2018-05-15T00:42:13.289Z,97467.92
2018-05-15T00:44:40.773Z,97466.28
2018-05-15T00:47:08.235Z,97473.95
2018-05-15T00:49:35.688Z,97468.41
2018-05-15T00:52:03.165Z,97468.73
2018-05-15T00:54:30.625Z,97473.53
2018-05-15T00:56:58.104Z,97467.38
2018-05-15T00:59:25.565Z,97463.84
2018-05-15T01:01:53.032Z,97462.77
2018-05-15T01:04:20.508Z,97459.61
2018-05-15T01:06:47.972Z,97473.02
2018-05-15T01:09:15.477Z,97459.63
2018-05-15T01:11:42.940Z,97458.54
2018-05-15T01:14:10.408Z,97462.50
2018-05-15T01:16:37.890Z,97454.83
2018-05-15T01:19:05.342Z,97459.15
2018-05-15T01:21:32.839Z,97468.19
2018-05-15T01:24:00.303Z,97463.21
2018-05-15T01:26:27.767Z,97462.31
2018-05-15T01:28:55.245Z,97468.05
2018-05-15T01:31:22.697Z,97459.45
2018-05-15T01:33:50.176Z,97464.28
2018-05-15T01:36:17.632Z,97457.47
2018-05-15T01:38:45.848Z,97459.14
2018-05-15T01:41:13.294Z,97446.53
2018-05-15T01:43:40.759Z,97453.56
2018-05-15T01:46:08.232Z,97449.56
2018-05-15T01:48:38.016Z,97444.83
2018-05-15T01:51:05.993Z,97439.14
2018-05-15T01:53:33.515Z,97443.98
2018-05-15T01:56:01.004Z,97436.83
2018-05-15T01:58:28.464Z,97444.30
2018-05-15T02:00:55.919Z,97444.72
2018-05-15T02:03:23.393Z,97438.21
2018-05-15T02:05:50.865Z,97444.87
2018-05-15T02:08:18.337Z,97437.86
2018-05-15T02:10:45.793Z,97440.33
2018-05-15T02:13:13.256Z,97440.91
2018-05-15T02:15:40.740Z,97439.86
2018-05-15T02:18:08.199Z,97452.13
2018-05-15T02:20:35.983Z,97449.36
2018-05-15T02:23:03.460Z,97440.54
2018-05-15T02:25:30.958Z,97443.73
2018-05-15T02:27:58.434Z,97443.30
2018-05-15T02:30:26.564Z,97435.42
2018-05-15T02:32:54.032Z,97438.66
2018-05-15T02:35:21.490Z,97444.69
2018-05-15T02:37:48.952Z,97451.42
2018-05-15T02:40:16.437Z,97452.33
2018-05-15T02:42:43.898Z,97447.17
2018-05-15T02:45:11.384Z,97456.40
2018-05-15T02:47:38.854Z,97453.51
2018-05-15T02:50:06.307Z,97457.90
2018-05-15T02:52:33.775Z,97453.78
2018-05-15T02:55:01.229Z,97458.83
2018-05-15T02:57:28.723Z,97454.81
2018-05-15T02:59:56.400Z,97460.64
2018-05-15T03:02:23.857Z,97458.91
2018-05-15T03:04:51.347Z,97463.20
2018-05-15T03:07:18.812Z,97457.30
2018-05-15T03:09:46.290Z,97463.03
2018-05-15T03:12:13.740Z,97461.45
2018-05-15T03:14:41.236Z,97457.36
2018-05-15T03:17:08.699Z,97461.95
2018-05-15T03:19:36.157Z,97469.17
2018-05-15T03:22:03.720Z,97464.02
2018-05-15T03:24:31.189Z,97468.98
2018-05-15T03:26:58.664Z,97466.33
2018-05-15T03:29:26.139Z,97472.17
2018-05-15T03:31:53.668Z,97471.41
2018-05-15T03:36:47.840Z,97480.05
2018-05-15T03:39:15.644Z,97486.18
2018-05-15T03:41:43.105Z,97484.99
2018-05-15T03:44:10.584Z,97483.60
2018-05-15T03:46:38.064Z,97489.16
2018-05-15T03:49:05.528Z,97494.63
2018-05-15T03:51:33.011Z,97496.96
2018-05-15T03:54:00.464Z,97499.45
2018-05-15T03:56:27.919Z,97510.55
2018-05-15T03:58:55.394Z,97510.77
2018-05-15T04:01:34.661Z,97514.80
2018-05-15T04:04:13.996Z,97514.93
2018-05-15T04:06:53.124Z,97514.81
2018-05-15T04:09:20.596Z,97520.36
2018-05-15T04:11:48.054Z,97518.26
2018-05-15T04:14:15.716Z,97525.00
2018-05-15T04:16:44.061Z,97531.00
2018-05-15T04:19:11.515Z,97527.02
2018-05-15T04:21:38.987Z,97524.70
2018-05-15T04:24:06.500Z,97535.49
2018-05-15T04:26:33.976Z,97534.30
2018-05-15T04:29:01.436Z,97537.91
2018-05-15T04:31:28.906Z,97543.48
2018-05-15T04:33:56.435Z,97544.33
2018-05-15T04:36:23.899Z,97543.42
2018-05-15T04:38:51.685Z,97545.84
2018-05-15T04:41:19.215Z,97547.33
2018-05-15T04:43:46.865Z,97543.00
2018-05-15T04:46:14.135Z,97547.02
2018-05-15T04:48:41.592Z,97551.70
2018-05-15T04:51:09.077Z,97554.53
2018-05-15T04:53:36.557Z,97562.05
2018-05-15T04:56:04.096Z,97559.03
2018-05-15T04:58:31.530Z,97560.16
2018-05-15T05:00:58.989Z,97557.84
2018-05-15T05:03:26.485Z,97560.03
2018-05-15T05:05:53.957Z,97562.05
2018-05-15T05:08:21.415Z,97562.03
2018-05-15T05:10:48.908Z,97555.54
2018-05-15T05:13:16.367Z,97570.80
2018-05-15T05:15:43.855Z,97562.81
2018-05-15T05:18:11.315Z,97575.97
2018-05-15T05:20:38.784Z,97576.97
2018-05-15T05:23:06.332Z,97569.77
2018-05-15T05:25:33.733Z,97568.69
2018-05-15T05:28:01.213Z,97582.97
2018-05-15T05:30:28.677Z,97584.52
2018-05-15T05:32:56.136Z,97590.66
2018-05-15T05:35:23.624Z,97596.70
2018-05-15T05:37:51.080Z,97598.56
2018-05-15T05:40:18.544Z,97604.99
2018-05-15T05:42:46.003Z,97600.83
2018-05-15T05:45:13.477Z,97603.81
2018-05-15T05:47:40.938Z,97607.95
2018-05-15T05:50:08.399Z,97606.20
2018-05-15T05:52:35.867Z,97605.13
2018-05-15T05:55:03.332Z,97607.05
2018-05-15T05:57:30.804Z,97609.84
2018-05-15T05:59:58.270Z,97613.91
2018-05-15T06:02:25.747Z,97617.14
2018-05-15T06:04:53.228Z,97614.84
2018-05-15T06:07:20.763Z,97624.34
2018-05-15T06:09:48.176Z,97615.33
2018-05-15T06:12:15.639Z,97627.73
2018-05-15T06:14:43.105Z,97621.63
2018-05-15T06:17:10.580Z,97634.09
2018-05-15T06:19:38.043Z,97633.79
2018-05-15T06:22:05.522Z,97638.27
2018-05-15T06:24:32.977Z,97646.00
2018-05-15T06:27:00.439Z,97642.50
2018-05-15T06:29:27.916Z,97650.73
2018-05-15T06:31:55.373Z,97651.42
2018-05-15T06:34:22.852Z,97650.95
2018-05-15T06:36:50.315Z,97656.17
2018-05-15T06:39:17.791Z,97657.69
2018-05-15T06:41:45.262Z,97651.42
2018-05-15T06:44:12.729Z,97668.72
2018-05-15T06:46:40.233Z,97663.45
2018-05-15T06:49:07.695Z,97669.58
2018-05-15T06:51:35.156Z,97660.49
2018-05-15T06:54:02.635Z,97653.02
2018-05-15T06:56:30.100Z,97657.60
2018-05-15T06:58:57.598Z,97658.53
2018-05-15T07:01:25.064Z,97663.11
2018-05-15T07:03:52.527Z,97657.50
2018-05-15T07:06:19.988Z,97663.30
2018-05-15T07:08:47.455Z,97656.15
2018-05-15T07:11:14.948Z,97651.76
2018-05-15T07:13:42.408Z,97654.55
2018-05-15T07:16:09.860Z,97655.39
2018-05-15T07:18:37.663Z,97660.77
2018-05-15T07:21:05.118Z,97660.28
2018-05-15T07:23:32.636Z,97663.16
2018-05-15T07:26:00.100Z,97667.36
2018-05-15T07:28:27.556Z,97668.63
2018-05-15T07:30:55.029Z,97662.93
2018-05-15T07:33:22.486Z,97669.07
2018-05-15T07:35:49.967Z,97667.84
2018-05-15T07:38:17.424Z,97663.95
2018-05-15T07:40:44.898Z,97668.09
2018-05-15T07:43:12.376Z,97672.08
2018-05-15T07:45:39.838Z,97672.25
2018-05-15T07:48:07.594Z,97675.73
2018-05-15T07:50:35.061Z,97673.27
2018-05-15T07:53:02.541Z,97665.16
2018-05-15T07:55:30.000Z,97661.31
2018-05-15T07:57:57.456Z,97663.86
2018-05-15T08:00:24.927Z,97666.67
2018-05-15T08:02:52.943Z,97664.70
2018-05-15T08:05:20.415Z,97667.25
2018-05-15T08:07:47.867Z,97661.78
2018-05-15T08:10:15.420Z,97664.47
2018-05-15T08:12:42.877Z,97668.03
2018-05-15T08:15:10.339Z,97671.79
2018-05-15T08:17:37.813Z,97677.30
2018-05-15T08:20:05.271Z,97678.22
2018-05-15T08:22:32.761Z,97679.05
2018-05-15T08:25:00.213Z,97680.33
2018-05-15T08:27:27.741Z,97679.80
2018-05-15T08:29:55.149Z,97686.25
2018-05-15T08:32:22.615Z,97684.30
2018-05-15T08:34:50.101Z,97689.66
2018-05-15T08:37:17.685Z,97688.65
2018-05-15T08:39:45.092Z,97687.81
2018-05-15T08:42:12.544Z,97693.18
2018-05-15T08:44:40.903Z,97685.01
2018-05-15T08:47:08.377Z,97702.36
2018-05-15T08:49:35.915Z,97702.06
2018-05-15T08:52:03.386Z,97692.01
2018-05-15T08:54:30.841Z,97696.84
2018-05-15T08:56:58.313Z,97697.20
2018-05-15T08:59:25.768Z,97700.55
2018-05-15T09:01:53.232Z,97700.55
2018-05-15T09:04:20.706Z,97699.11
2018-05-15T09:06:48.161Z,97703.83
2018-05-15T09:09:15.644Z,97709.53
2018-05-15T09:11:43.104Z,97709.59
2018-05-15T09:14:10.563Z,97713.64
2018-05-15T09:16:38.053Z,97711.74
2018-05-15T09:19:05.520Z,97715.45
2018-05-15T09:21:33.001Z,97722.17
2018-05-15T09:24:00.460Z,97721.09
2018-05-15T09:26:28.391Z,97723.94
2018-05-15T09:28:55.864Z,97728.11
2018-05-15T09:31:23.329Z,97735.27
2018-05-15T09:33:50.800Z,97736.34
2018-05-15T09:36:18.266Z,97741.28
2018-05-15T09:38:45.749Z,97738.95
2018-05-15T09:41:13.225Z,97746.61
2018-05-15T09:43:55.603Z,97742.69
2018-05-15T09:46:23.059Z,97744.87
2018-05-15T09:48:50.925Z,97740.02
2018-05-15T09:51:18.399Z,97739.31
2018-05-15T09:53:45.859Z,97739.89
2018-05-15T09:56:13.334Z,97745.52
2018-05-15T09:58:40.801Z,97739.09
2018-05-15T10:01:08.282Z,97744.41
2018-05-15T10:03:35.744Z,97745.45
2018-05-15T10:06:03.212Z,97757.88
2018-05-15T10:08:30.704Z,97757.76
2018-05-15T10:10:58.168Z,97760.36
2018-05-15T10:13:25.644Z,97762.91
2018-05-15T10:15:53.104Z,97757.14
2018-05-15T10:18:20.581Z,97759.02
2018-05-15T10:20:48.048Z,97759.56
2018-05-15T10:23:15.513Z,97756.94
2018-05-15T10:25:42.989Z,97768.09
2018-05-15T10:28:10.453Z,97769.41
2018-05-15T10:30:37.951Z,97764.28
2018-05-15T10:33:05.425Z,97770.14
2018-05-15T10:35:32.986Z,97783.13
2018-05-15T10:38:00.460Z,97778.94
2018-05-15T10:40:27.920Z,97779.66
2018-05-15T10:42:55.747Z,97779.64
2018-05-15T10:45:23.213Z,97786.72
2018-05-15T10:47:50.668Z,97786.04
2018-05-15T10:50:18.171Z,97788.72
2018-05-15T10:52:45.645Z,97791.91
2018-05-15T10:55:13.145Z,97793.98
2018-05-15T10:57:40.622Z,97795.39
2018-05-15T11:00:08.082Z,97796.34
2018-05-15T11:02:35.564Z,97793.38
2018-05-15T11:05:03.025Z,97796.84
2018-05-15T11:07:30.511Z,97796.11
2018-05-15T11:09:57.968Z,97794.70
2018-05-15T11:12:25.435Z,97788.64
2018-05-15T11:14:52.938Z,97792.77
2018-05-15T11:17:20.396Z,97791.44
2018-05-15T11:19:59.581Z,97795.56
2018-05-15T11:22:38.764Z,97789.47
2018-05-15T11:25:06.248Z,97790.79
2018-05-15T11:27:33.722Z,97790.44
2018-05-15T11:30:01.201Z,97794.41
2018-05-15T11:32:28.665Z,97793.20
2018-05-15T11:34:56.172Z,97790.95
2018-05-15T11:37:23.631Z,97792.78
2018-05-15T11:39:51.092Z,97797.52
2018-05-15T11:42:18.574Z,97796.27
2018-05-15T11:44:46.046Z,97797.06
2018-05-15T11:47:13.547Z,97795.34
2018-05-15T11:49:42.238Z,97802.48
2018-05-15T11:52:09.426Z,97801.58
2018-05-15T11:54:35.976Z,97800.09
2018-05-15T11:57:03.444Z,97797.59
2018-05-15T11:59:30.932Z,97798.28
2018-05-15T12:01:58.410Z,97801.61
2018-05-15T12:04:25.933Z,97797.27
2018-05-15T12:06:53.407Z,97801.01
2018-05-15T12:09:20.879Z,97800.52
2018-05-15T12:11:48.676Z,97800.48
2018-05-15T12:14:16.140Z,97802.80
2018-05-15T12:16:43.605Z,97800.50
2018-05-15T12:19:11.087Z,97803.77
2018-05-15T12:21:38.562Z,97802.89
2018-05-15T12:24:06.055Z,97798.63
2018-05-15T12:26:33.522Z,97801.52
2018-05-15T12:29:00.985Z,97800.27
2018-05-15T12:31:28.467Z,97798.09
2018-05-15T12:33:55.947Z,97803.94
2018-05-15T12:36:23.424Z,97804.97
2018-05-15T12:38:50.880Z,97802.22
2018-05-15T12:41:18.403Z,97805.86
2018-05-15T12:43:45.857Z,97797.62
2018-05-15T12:46:13.321Z,97808.45
2018-05-15T12:48:40.878Z,97803.55
2018-05-15T12:51:08.302Z,97801.08
2018-05-15T12:53:35.767Z,97808.34
2018-05-15T12:56:03.261Z,97810.17
2018-05-15T12:58:30.724Z,97817.31
2018-05-15T13:00:58.211Z,97812.80
2018-05-15T13:03:25.661Z,97814.90
2018-05-15T13:05:53.146Z,97817.02
2018-05-15T13:08:20.607Z,97824.84
2018-05-15T13:10:48.078Z,97819.25
2018-05-15T13:13:15.584Z,97821.25
2018-05-15T13:15:43.047Z,97824.45
2018-05-15T13:18:10.545Z,97826.48
2018-05-15T13:20:38.000Z,97816.73
2018-05-15T13:23:05.447Z,97816.14
2018-05-15T13:25:32.919Z,97813.08
2018-05-15T13:28:00.382Z,97806.56
2018-05-15T13:30:27.887Z,97815.53
2018-05-15T13:32:55.349Z,97813.13
2018-05-15T13:35:22.824Z,97816.72
2018-05-15T13:37:50.316Z,97818.27
2018-05-15T13:40:17.783Z,97807.20
2018-05-15T13:42:45.263Z,97806.47
2018-05-15T13:45:12.740Z,97804.91
2018-05-15T13:47:40.209Z,97808.64
2018-05-15T13:50:08.010Z,97801.69
2018-05-15T13:52:35.473Z,97806.48
2018-05-15T13:55:02.970Z,97807.91
2018-05-15T13:57:30.427Z,97811.35
2018-05-15T13:59:57.885Z,97813.67
2018-05-15T14:02:25.371Z,97815.89
2018-05-15T14:04:52.841Z,97822.77
2018-05-15T14:07:20.324Z,97819.49
2018-05-15T14:09:47.783Z,97815.39
2018-05-15T14:12:15.268Z,97817.18
2018-05-15T14:14:42.743Z,97816.92
2018-05-15T14:17:10.214Z,97814.99
2018-05-15T14:19:37.707Z,97807.80
2018-05-15T14:22:05.173Z,97797.52
2018-05-15T14:24:32.656Z,97816.89
2018-05-15T14:27:00.148Z,97814.48
2018-05-15T14:29:27.630Z,97814.53
2018-05-15T14:31:55.121Z,97799.48
2018-05-15T14:34:22.610Z,97800.28
2018-05-15T14:36:50.074Z,97805.93
2018-05-15T14:39:17.544Z,97800.50
2018-05-15T14:41:56.808Z,97801.98
2018-05-15T14:44:24.283Z,97812.53
2018-05-15T14:46:51.754Z,97807.91
2018-05-15T14:49:19.268Z,97805.22
2018-05-15T14:51:46.731Z,97806.72
2018-05-15T14:54:14.237Z,97802.49
2018-05-15T14:56:41.702Z,97795.09
2018-05-15T14:59:09.186Z,97808.61
2018-05-15T15:01:36.659Z,97799.20
2018-05-15T15:04:04.128Z,97798.94
2018-05-15T15:06:31.604Z,97798.58
2018-05-15T15:08:59.074Z,97797.78
2018-05-15T15:11:26.784Z,97791.47
2018-05-15T15:13:54.284Z,97798.48
2018-05-15T15:16:21.750Z,97798.69
2018-05-15T15:18:49.233Z,97791.17
2018-05-15T15:21:16.799Z,97790.89
2018-05-15T15:23:44.405Z,97796.05
2018-05-15T15:26:11.861Z,97791.31
2018-05-15T15:28:39.321Z,97787.70
2018-05-15T15:31:06.808Z,97794.86
2018-05-15T15:33:34.257Z,97794.62
2018-05-15T15:36:01.726Z,97794.00
2018-05-15T15:38:29.208Z,97790.14
2018-05-15T15:40:56.660Z,97791.47
2018-05-15T15:43:24.159Z,97793.33
2018-05-15T15:45:51.636Z,97791.08
2018-05-15T15:48:19.117Z,97782.55
2018-05-15T15:50:46.887Z,97782.51
2018-05-15T15:53:14.579Z,97780.97
2018-05-15T15:55:42.080Z,97785.27
2018-05-15T15:58:09.551Z,97781.03
2018-05-15T16:00:37.105Z,97780.50
2018-05-15T16:03:04.557Z,97785.20
2018-05-15T16:05:32.224Z,97778.64
2018-05-15T16:08:00.274Z,97772.45
2018-05-15T16:10:27.756Z,97775.80
2018-05-15T16:12:55.244Z,97768.65
2018-05-15T16:15:22.873Z,97774.04
2018-05-15T16:17:50.359Z,97773.32
2018-05-15T16:20:17.840Z,97775.22
2018-05-15T16:22:45.524Z,97770.27
2018-05-15T16:25:13.391Z,97770.64
2018-05-15T16:27:41.236Z,97768.32
2018-05-15T16:30:09.198Z,97772.39
2018-05-15T16:32:37.020Z,97763.02
2018-05-15T16:35:05.060Z,97761.42
2018-05-15T16:37:32.937Z,97753.98
2018-05-15T16:40:00.614Z,97758.97
2018-05-15T16:42:28.333Z,97759.53
2018-05-15T16:44:56.299Z,97762.95
2018-05-15T16:47:23.869Z,97755.98
2018-05-15T16:49:51.376Z,97757.94
2018-05-15T16:52:18.873Z,97761.22
2018-05-15T16:54:46.725Z,97754.89
2018-05-15T16:57:14.236Z,97751.48
2018-05-15T16:59:42.155Z,97749.29
2018-05-15T17:02:10.195Z,97743.22
2018-05-15T17:04:37.975Z,97751.41
2018-05-15T17:07:06.027Z,97748.91
2018-05-15T17:09:34.104Z,97749.52
2018-05-15T17:12:01.561Z,97744.39
2018-05-15T17:14:30.519Z,97744.64
2018-05-15T17:16:58.221Z,97744.39
2018-05-15T17:19:25.831Z,97742.85
2018-05-15T17:21:53.597Z,97741.47
2018-05-15T17:24:21.386Z,97738.80
2018-05-15T17:26:49.088Z,97744.80
2018-05-15T17:29:16.919Z,97741.34
2018-05-15T17:31:45.196Z,97739.53
2018-05-15T17:34:13.289Z,97736.06
2018-05-15T17:36:41.359Z,97736.57
2018-05-15T17:39:09.432Z,97730.49
2018-05-15T17:41:37.474Z,97728.42
2018-05-15T17:44:05.466Z,97725.49
2018-05-15T17:46:33.487Z,97721.55
2018-05-15T17:49:01.564Z,97719.63
2018-05-15T17:51:29.849Z,97713.50
2018-05-15T17:53:57.912Z,97711.39
2018-05-15T17:56:26.310Z,97713.59
2018-05-15T17:58:54.411Z,97707.11
2018-05-15T18:01:22.465Z,97706.66
2018-05-15T18:03:50.578Z,97715.05
2018-05-15T18:06:18.047Z,97710.72
2018-05-15T18:08:45.727Z,97714.75
2018-05-15T18:11:13.184Z,97717.56
2018-05-15T18:13:41.293Z,97714.03
2018-05-15T18:16:09.291Z,97716.13
2018-05-15T18:18:36.770Z,97720.22
2018-05-15T18:21:04.261Z,97726.11
2018-05-15T18:23:31.723Z,97729.46
2018-05-15T18:25:59.302Z,97739.07
2018-05-15T18:28:26.761Z,97736.38
2018-05-15T18:30:54.299Z,97737.13
2018-05-15T18:33:22.136Z,97740.62
2018-05-15T18:35:49.896Z,97737.30
2018-05-15T18:38:18.099Z,97738.81
2018-05-15T18:40:45.560Z,97738.11
2018-05-15T18:43:13.027Z,97747.48
2018-05-15T18:45:40.523Z,97743.66
2018-05-15T18:48:08.779Z,97746.36
2018-05-15T18:50:37.138Z,97745.90
2018-05-15T18:53:04.604Z,97750.17
2018-05-15T18:55:32.079Z,97761.09
2018-05-15T18:58:00.036Z,97762.76
2018-05-15T19:00:27.416Z,97761.69
2018-05-15T19:02:54.907Z,97761.34
2018-05-15T19:05:22.374Z,97767.30
2018-05-15T19:07:49.839Z,97764.39
2018-05-15T19:10:17.313Z,97771.23
2018-05-15T19:12:44.787Z,97772.16
2018-05-15T19:15:12.260Z,97779.16
2018-05-15T19:17:39.716Z,97773.63
2018-05-15T19:20:07.188Z,97778.16
2018-05-15T19:22:34.659Z,97781.85
2018-05-15T19:25:02.291Z,97784.72
2018-05-15T19:27:30.304Z,97782.28
2018-05-15T19:29:57.779Z,97789.59
2018-05-15T19:32:30.710Z,97789.50
2018-05-15T19:34:58.621Z,97793.00
2018-05-15T19:37:26.092Z,97790.75
2018-05-15T19:39:53.683Z,97792.00
2018-05-15T19:42:21.192Z,97786.00
2018-05-15T19:44:48.672Z,97793.17
2018-05-15T19:47:16.152Z,97794.86
2018-05-15T19:49:43.615Z,97793.65
2018-05-15T19:52:11.328Z,97796.70
2018-05-15T19:54:38.791Z,97795.50
2018-05-15T19:57:06.251Z,97797.72
2018-05-15T19:59:35.208Z,97788.64
2018-05-15T20:02:02.794Z,97781.40
2018-05-15T20:04:30.288Z,97782.52
2018-05-15T20:06:58.408Z,97784.38
2018-05-15T20:09:25.927Z,97785.30
2018-05-15T20:11:53.418Z,97785.24
2018-05-15T20:14:20.898Z,97785.30
2018-05-15T20:16:48.388Z,97780.50
2018-05-15T20:19:15.853Z,97776.30
2018-05-15T20:21:43.337Z,97777.17
2018-05-15T20:24:11.479Z,97768.03
2018-05-15T20:26:39.555Z,97780.42
2018-05-15T20:29:07.062Z,97777.22
2018-05-15T20:31:34.532Z,97780.22
2018-05-15T20:34:02.036Z,97786.67
2018-05-15T20:36:29.581Z,97787.42
2018-05-15T20:38:57.052Z,97784.31
2018-05-15T20:41:24.528Z,97789.61
2018-05-15T20:43:52.015Z,97788.18
2018-05-15T20:46:19.496Z,97785.73
2018-05-15T20:48:46.978Z,97787.89
2018-05-15T20:51:15.087Z,97783.58
2018-05-15T20:53:42.564Z,97783.97
2018-05-15T20:56:10.214Z,97788.61
2018-05-15T20:58:37.694Z,97796.30
2018-05-15T21:01:05.151Z,97795.02
2018-05-15T21:03:32.644Z,97800.67
2018-05-15T21:06:00.168Z,97809.39
2018-05-15T21:08:27.659Z,97811.13
2018-05-15T21:10:55.128Z,97815.38
2018-05-15T21:13:22.615Z,97811.33
2018-05-15T21:15:50.096Z,97810.11
2018-05-15T21:18:18.492Z,97809.02
2018-05-15T21:20:45.984Z,97815.27
2018-05-15T21:23:13.463Z,97811.64
2018-05-15T21:25:40.940Z,97812.48
2018-05-15T21:28:08.436Z,97814.05
2018-05-15T21:30:35.908Z,97818.19
2018-05-15T21:33:03.398Z,97811.92
2018-05-15T21:35:30.876Z,97815.48
2018-05-15T21:37:58.347Z,97817.59
2018-05-15T21:40:25.837Z,97812.35
2018-05-15T21:42:53.304Z,97815.09
2018-05-15T21:45:20.778Z,97816.77
2018-05-15T21:47:48.285Z,97814.77
2018-05-15T21:50:15.753Z,97815.83
2018-05-15T21:52:43.260Z,97814.17
2018-05-15T21:55:10.748Z,97819.23
2018-05-15T21:57:38.224Z,97812.45
2018-05-15T22:00:05.723Z,97812.20
2018-05-15T22:02:33.201Z,97810.52
2018-05-15T22:05:00.687Z,97812.53
2018-05-15T22:07:28.151Z,97811.45
2018-05-15T22:09:55.640Z,97812.00
2018-05-15T22:12:35.753Z,97811.12
2018-05-15T22:15:14.980Z,97807.41
2018-05-15T22:17:54.112Z,97803.41
2018-05-15T22:20:33.676Z,97806.05
2018-05-15T22:23:00.568Z,97800.41
2018-05-15T22:25:28.046Z,97800.52
2018-05-15T22:27:55.517Z,97799.20
2018-05-15T22:30:23.014Z,97806.38
2018-05-15T22:32:50.485Z,97801.17
2018-05-15T22:35:17.966Z,97799.31
2018-05-15T22:37:45.442Z,97797.16
2018-05-15T22:40:12.952Z,97798.20
2018-05-15T22:42:40.420Z,97792.67
2018-05-15T22:45:07.886Z,97792.45
2018-05-15T22:47:35.359Z,97795.93
2018-05-15T22:50:02.852Z,97797.50
2018-05-15T22:52:33.777Z,97796.18
2018-05-15T22:55:01.252Z,97794.32
2018-05-15T22:57:28.743Z,97791.80
2018-05-15T22:59:56.221Z,97784.43
2018-05-15T23:02:23.695Z,97784.83
2018-05-15T23:04:51.188Z,97779.95
2018-05-15T23:07:18.652Z,97779.67
2018-05-15T23:09:46.136Z,97777.09
2018-05-15T23:12:13.604Z,97782.98
2018-05-15T23:14:41.082Z,97780.09
2018-05-15T23:17:08.569Z,97779.30
2018-05-15T23:19:36.045Z,97773.84
2018-05-15T23:22:03.553Z,97771.23
2018-05-15T23:24:31.024Z,97772.64
2018-05-15T23:26:58.500Z,97770.81
2018-05-15T23:29:26.072Z,97773.03
2018-05-15T23:31:53.507Z,97774.63
2018-05-15T23:34:20.988Z,97770.25
2018-05-15T23:36:48.459Z,97773.20
2018-05-15T23:39:15.930Z,97772.24
2018-05-15T23:41:43.428Z,97766.86
2018-05-15T23:44:10.892Z,97764.95
2018-05-15T23:46:38.381Z,97763.27
2018-05-15T23:49:05.848Z,97772.19
2018-05-15T23:51:33.319Z,97769.89
2018-05-15T23:54:00.813Z,97770.70
2018-05-15T23:56:28.279Z,97771.20
2018-05-15T23:58:55.768Z,97772.97
